Halleck, NV (89824)

6:11 AM PDT on November 01, 2014 (GMT -0700)
Ryndon(KNVELKO6) | Change Station
CLOSE
Current Station
Personal Weather Station
Location: Elko, NV
Elevation: 5230 ft
Nearby Weather Stations

Elev 5230 ft 40.96 °N, 115.59 °W | Updated 0 second ago

Clear
Clear
35.6 °F
Feels Like 36 °F
N
0.2
Wind Variable Wind from SSW
Gusts 0.4 mph

Today
High -- | Low -- °F
--% Chance of Precip.
Yesterday
High -- | Low -- °F
Precip. -- in
7:12 AM 5:37 PM
Waxing Gibbous, 66% visible
Pressure 29.46 in
Visibility 10.0 miles
Clouds Mostly Cloudy 9000 ft
Windchill 36 °F
Dew Point 19 °F
Humidity 51%
Rainfall 0.00 in
Snow Depth Not available.
UV 0 out of 12
Pollen .40 out of 12
Air Quality Not available.
Flu Activity Not available.
METAR KEKO 011256Z AUTO 08006KT 10SM BKN090 06/M04 A2954 RMK AO2 SLP975 T00561044

More Conditions Fewer Conditions

Pressure 29.46 in
Visibility 10.0 miles
Clouds Mostly Cloudy 9000 ft
Windchill 36 °F
Dew Point 19 °F
Humidity 51%
Rainfall 0.00 in
Snow Depth Not available.
UV 0 out of 12
Pollen .40 out of 12
Air Quality Not available.
Flu Activity Not available.
METAR KEKO 011256Z AUTO 08006KT 10SM BKN090 06/M04 A2954 RMK AO2 SLP975 T00561044

More Conditions Fewer Conditions

10-Day Weather Forecast

Almanac

Astronomy

Nov. 01, 2014 Rise Set
Actual Time
Civil Twilight
Nautical Twilight
Astronomical Twilight
Moon
Length of Visible Light
Length of Day
Tomorrow will be .
, % of the Moon is Illuminated

Today's Extremes

State Highs State Lows

Community

WunderPhotos

Upload Photos

1,766,921 photos uploaded!

WunderBlogs® & News

Nearby

Air Quality

  Air Quality AQ Index Pollutant
Not available.

Snow Depth

Station Depth Elevation

Earthquake Activity

City Distance Mag. Time & Date
Minimum magnitude displayed is 2.5.

Coastal Water Temperatures

Place Temperature

Nearby Weather Stations